sensor_id;sensor_type;location;lat;lon;timestamp;temperature;humidity
35111;DHT22;21290;50.158;8.658;2022-07-30T00:01:51;20.30;99.90
35111;DHT22;21290;50.158;8.658;2022-07-30T00:04:18;20.30;99.90
35111;DHT22;21290;50.158;8.658;2022-07-30T00:06:45;20.30;99.90
35111;DHT22;21290;50.158;8.658;2022-07-30T00:09:12;20.30;99.90
35111;DHT22;21290;50.158;8.658;2022-07-30T00:11:38;20.30;99.90
35111;DHT22;21290;50.158;8.658;2022-07-30T00:14:05;20.30;99.90
35111;DHT22;21290;50.158;8.658;2022-07-30T00:16:32;20.20;99.90
35111;DHT22;21290;50.158;8.658;2022-07-30T00:18:58;20.20;99.90
35111;DHT22;21290;50.158;8.658;2022-07-30T00:21:25;20.20;99.90
35111;DHT22;21290;50.158;8.658;2022-07-30T00:24:02;20.20;99.90
35111;DHT22;21290;50.158;8.658;2022-07-30T00:26:30;20.20;99.90
35111;DHT22;21290;50.158;8.658;2022-07-30T00:28:56;20.10;99.90
35111;DHT22;21290;50.158;8.658;2022-07-30T00:31:23;20.10;99.90
35111;DHT22;21290;50.158;8.658;2022-07-30T00:33:50;20.10;99.90
35111;DHT22;21290;50.158;8.658;2022-07-30T00:36:17;20.10;99.90
35111;DHT22;21290;50.158;8.658;2022-07-30T00:38:43;20.00;99.90
35111;DHT22;21290;50.158;8.658;2022-07-30T00:41:10;19.90;99.90
35111;DHT22;21290;50.158;8.658;2022-07-30T00:43:38;19.80;99.90
35111;DHT22;21290;50.158;8.658;2022-07-30T00:46:04;19.70;99.90
35111;DHT22;21290;50.158;8.658;2022-07-30T00:48:31;19.70;99.90
35111;DHT22;21290;50.158;8.658;2022-07-30T00:50:58;19.60;99.90
35111;DHT22;21290;50.158;8.658;2022-07-30T00:53:25;19.60;99.90
35111;DHT22;21290;50.158;8.658;2022-07-30T00:55:52;19.60;99.90
35111;DHT22;21290;50.158;8.658;2022-07-30T00:58:18;19.50;99.90
35111;DHT22;21290;50.158;8.658;2022-07-30T01:00:45;19.40;99.90
35111;DHT22;21290;50.158;8.658;2022-07-30T01:03:12;19.40;99.90
35111;DHT22;21290;50.158;8.658;2022-07-30T01:05:38;19.40;99.90
35111;DHT22;21290;50.158;8.658;2022-07-30T01:08:05;19.30;99.90
35111;DHT22;21290;50.158;8.658;2022-07-30T01:10:32;19.30;99.90
35111;DHT22;21290;50.158;8.658;2022-07-30T01:12:59;19.20;99.90
35111;DHT22;21290;50.158;8.658;2022-07-30T01:15:27;19.20;99.90
35111;DHT22;21290;50.158;8.658;2022-07-30T01:17:57;19.20;99.90
35111;DHT22;21290;50.158;8.658;2022-07-30T01:20:29;19.20;99.90
35111;DHT22;21290;50.158;8.658;2022-07-30T01:23:06;19.10;99.90
35111;DHT22;21290;50.158;8.658;2022-07-30T01:28:23;19.00;99.90
35111;DHT22;21290;50.158;8.658;2022-07-30T01:30:51;18.90;99.90
35111;DHT22;21290;50.158;8.658;2022-07-30T01:33:21;18.80;99.90
35111;DHT22;21290;50.158;8.658;2022-07-30T01:35:49;18.80;99.90
35111;DHT22;21290;50.158;8.658;2022-07-30T01:38:21;18.80;99.90
35111;DHT22;21290;50.158;8.658;2022-07-30T01:40:50;18.70;99.90
35111;DHT22;21290;50.158;8.658;2022-07-30T01:43:20;18.70;99.90
35111;DHT22;21290;50.158;8.658;2022-07-30T01:45:48;18.70;99.90
35111;DHT22;21290;50.158;8.658;2022-07-30T01:48:18;18.70;99.90
35111;DHT22;21290;50.158;8.658;2022-07-30T01:50:49;18.60;99.90
35111;DHT22;21290;50.158;8.658;2022-07-30T01:53:18;18.60;99.90
35111;DHT22;21290;50.158;8.658;2022-07-30T01:55:46;18.60;99.90
35111;DHT22;21290;50.158;8.658;2022-07-30T01:58:15;18.60;99.90
35111;DHT22;21290;50.158;8.658;2022-07-30T02:00:43;18.60;99.90
35111;DHT22;21290;50.158;8.658;2022-07-30T02:03:11;18.50;99.90
35111;DHT22;21290;50.158;8.658;2022-07-30T02:05:40;18.40;99.90
35111;DHT22;21290;50.158;8.658;2022-07-30T02:08:15;18.40;99.90
35111;DHT22;21290;50.158;8.658;2022-07-30T02:10:51;18.30;99.90
35111;DHT22;21290;50.158;8.658;2022-07-30T02:13:20;18.30;99.90
35111;DHT22;21290;50.158;8.658;2022-07-30T02:15:53;18.30;99.90
35111;DHT22;21290;50.158;8.658;2022-07-30T02:21:07;18.20;99.90
35111;DHT22;21290;50.158;8.658;2022-07-30T02:23:43;18.30;99.90
35111;DHT22;21290;50.158;8.658;2022-07-30T02:26:13;18.30;99.90
35111;DHT22;21290;50.158;8.658;2022-07-30T02:28:47;18.20;99.90
35111;DHT22;21290;50.158;8.658;2022-07-30T02:31:18;18.20;99.90
35111;DHT22;21290;50.158;8.658;2022-07-30T02:33:48;18.10;99.90
35111;DHT22;21290;50.158;8.658;2022-07-30T02:36:17;18.10;99.90
35111;DHT22;21290;50.158;8.658;2022-07-30T02:38:46;18.10;99.90
35111;DHT22;21290;50.158;8.658;2022-07-30T02:41:18;18.10;99.90
35111;DHT22;21290;50.158;8.658;2022-07-30T02:43:47;18.10;99.90
35111;DHT22;21290;50.158;8.658;2022-07-30T02:46:15;18.10;99.90
35111;DHT22;21290;50.158;8.658;2022-07-30T02:48:44;18.00;99.90
35111;DHT22;21290;50.158;8.658;2022-07-30T02:51:15;18.00;99.90
35111;DHT22;21290;50.158;8.658;2022-07-30T02:53:46;18.10;99.90
35111;DHT22;21290;50.158;8.658;2022-07-30T02:56:14;18.20;99.90
35111;DHT22;21290;50.158;8.658;2022-07-30T02:58:43;18.20;99.90
35111;DHT22;21290;50.158;8.658;2022-07-30T03:01:12;18.10;99.90
35111;DHT22;21290;50.158;8.658;2022-07-30T03:03:44;18.20;99.90
35111;DHT22;21290;50.158;8.658;2022-07-30T03:06:13;18.20;99.90
35111;DHT22;21290;50.158;8.658;2022-07-30T03:08:42;18.10;99.90
35111;DHT22;21290;50.158;8.658;2022-07-30T03:11:11;18.20;99.90
35111;DHT22;21290;50.158;8.658;2022-07-30T03:13:38;18.20;99.90
35111;DHT22;21290;50.158;8.658;2022-07-30T03:16:08;18.20;99.90
35111;DHT22;21290;50.158;8.658;2022-07-30T03:18:36;18.20;99.90
35111;DHT22;21290;50.158;8.658;2022-07-30T03:21:06;18.20;99.90
35111;DHT22;21290;50.158;8.658;2022-07-30T03:23:35;18.20;99.90
35111;DHT22;21290;50.158;8.658;2022-07-30T03:26:04;18.20;99.90
35111;DHT22;21290;50.158;8.658;2022-07-30T03:28:35;18.20;99.90
35111;DHT22;21290;50.158;8.658;2022-07-30T03:31:03;18.20;99.90
35111;DHT22;21290;50.158;8.658;2022-07-30T03:33:33;18.20;99.90
35111;DHT22;21290;50.158;8.658;2022-07-30T03:36:06;18.30;99.90
35111;DHT22;21290;50.158;8.658;2022-07-30T03:38:38;18.10;99.90
35111;DHT22;21290;50.158;8.658;2022-07-30T03:41:07;18.00;99.90
35111;DHT22;21290;50.158;8.658;2022-07-30T03:43:34;17.90;99.90
35111;DHT22;21290;50.158;8.658;2022-07-30T03:46:04;17.80;99.90
35111;DHT22;21290;50.158;8.658;2022-07-30T03:48:33;17.80;99.90
35111;DHT22;21290;50.158;8.658;2022-07-30T03:51:02;17.90;99.90
35111;DHT22;21290;50.158;8.658;2022-07-30T03:53:30;17.90;99.90
35111;DHT22;21290;50.158;8.658;2022-07-30T03:55:57;18.00;99.90
35111;DHT22;21290;50.158;8.658;2022-07-30T03:58:24;18.00;99.90
35111;DHT22;21290;50.158;8.658;2022-07-30T04:00:51;18.00;99.90
35111;DHT22;21290;50.158;8.658;2022-07-30T04:03:30;18.00;99.90
35111;DHT22;21290;50.158;8.658;2022-07-30T04:05:57;18.00;99.90
35111;DHT22;21290;50.158;8.658;2022-07-30T04:08:24;18.10;99.90
35111;DHT22;21290;50.158;8.658;2022-07-30T04:10:51;18.10;99.90
35111;DHT22;21290;50.158;8.658;2022-07-30T04:13:18;18.20;99.90
35111;DHT22;21290;50.158;8.658;2022-07-30T04:18:58;18.20;99.90
35111;DHT22;21290;50.158;8.658;2022-07-30T04:21:26;18.10;99.90
35111;DHT22;21290;50.158;8.658;2022-07-30T04:23:54;18.10;99.90
35111;DHT22;21290;50.158;8.658;2022-07-30T04:26:33;18.20;99.90
35111;DHT22;21290;50.158;8.658;2022-07-30T04:29:01;18.20;99.90
35111;DHT22;21290;50.158;8.658;2022-07-30T04:31:28;18.20;99.90
35111;DHT22;21290;50.158;8.658;2022-07-30T04:34:06;18.20;99.90
35111;DHT22;21290;50.158;8.658;2022-07-30T04:36:33;18.20;99.90
35111;DHT22;21290;50.158;8.658;2022-07-30T04:39:02;18.10;99.90
35111;DHT22;21290;50.158;8.658;2022-07-30T04:41:29;18.10;99.90
35111;DHT22;21290;50.158;8.658;2022-07-30T04:44:13;18.10;99.90
35111;DHT22;21290;50.158;8.658;2022-07-30T04:46:40;18.00;99.90
35111;DHT22;21290;50.158;8.658;2022-07-30T04:49:07;18.00;99.90
35111;DHT22;21290;50.158;8.658;2022-07-30T04:51:36;18.00;99.90
35111;DHT22;21290;50.158;8.658;2022-07-30T04:54:04;18.10;99.90
35111;DHT22;21290;50.158;8.658;2022-07-30T04:56:33;18.20;99.90
35111;DHT22;21290;50.158;8.658;2022-07-30T04:59:00;18.20;99.90
35111;DHT22;21290;50.158;8.658;2022-07-30T05:01:33;18.20;99.90
35111;DHT22;21290;50.158;8.658;2022-07-30T05:04:07;18.20;99.90
35111;DHT22;21290;50.158;8.658;2022-07-30T05:06:36;18.30;99.90
35111;DHT22;21290;50.158;8.658;2022-07-30T05:09:04;18.30;99.90
35111;DHT22;21290;50.158;8.658;2022-07-30T05:11:31;18.30;99.90
35111;DHT22;21290;50.158;8.658;2022-07-30T05:13:58;18.30;99.90
35111;DHT22;21290;50.158;8.658;2022-07-30T05:16:25;18.40;99.90
35111;DHT22;21290;50.158;8.658;2022-07-30T05:18:52;18.40;99.90
35111;DHT22;21290;50.158;8.658;2022-07-30T05:21:18;18.50;99.90
35111;DHT22;21290;50.158;8.658;2022-07-30T05:23:45;18.50;99.90
35111;DHT22;21290;50.158;8.658;2022-07-30T05:26:20;18.60;99.90
35111;DHT22;21290;50.158;8.658;2022-07-30T05:28:47;18.60;99.90
35111;DHT22;21290;50.158;8.658;2022-07-30T05:31:20;18.70;99.90
35111;DHT22;21290;50.158;8.658;2022-07-30T05:33:47;18.80;99.90
35111;DHT22;21290;50.158;8.658;2022-07-30T05:36:13;18.80;99.90
35111;DHT22;21290;50.158;8.658;2022-07-30T05:38:40;18.80;99.90
35111;DHT22;21290;50.158;8.658;2022-07-30T05:41:07;18.90;99.90
35111;DHT22;21290;50.158;8.658;2022-07-30T05:43:54;18.90;99.90
35111;DHT22;21290;50.158;8.658;2022-07-30T05:46:22;19.00;99.90
35111;DHT22;21290;50.158;8.658;2022-07-30T05:48:48;19.00;99.90
35111;DHT22;21290;50.158;8.658;2022-07-30T05:51:15;19.10;99.90
35111;DHT22;21290;50.158;8.658;2022-07-30T05:53:44;19.20;99.90
35111;DHT22;21290;50.158;8.658;2022-07-30T05:56:10;19.30;99.90
35111;DHT22;21290;50.158;8.658;2022-07-30T05:58:37;19.30;99.90
35111;DHT22;21290;50.158;8.658;2022-07-30T06:01:04;19.40;99.90
35111;DHT22;21290;50.158;8.658;2022-07-30T06:03:31;19.50;99.90
35111;DHT22;21290;50.158;8.658;2022-07-30T06:05:58;19.60;99.90
35111;DHT22;21290;50.158;8.658;2022-07-30T06:08:24;19.60;99.90
35111;DHT22;21290;50.158;8.658;2022-07-30T06:10:51;19.80;99.90
35111;DHT22;21290;50.158;8.658;2022-07-30T06:13:17;20.00;99.90
35111;DHT22;21290;50.158;8.658;2022-07-30T06:15:44;20.10;99.90
35111;DHT22;21290;50.158;8.658;2022-07-30T06:18:11;20.10;99.90
35111;DHT22;21290;50.158;8.658;2022-07-30T06:20:41;20.10;99.90
35111;DHT22;21290;50.158;8.658;2022-07-30T06:23:07;20.20;99.90
35111;DHT22;21290;50.158;8.658;2022-07-30T06:25:34;20.40;99.90
35111;DHT22;21290;50.158;8.658;2022-07-30T06:28:04;20.40;99.90
35111;DHT22;21290;50.158;8.658;2022-07-30T06:30:51;20.50;99.90
35111;DHT22;21290;50.158;8.658;2022-07-30T06:33:18;20.60;99.90
35111;DHT22;21290;50.158;8.658;2022-07-30T06:35:45;20.60;99.90
35111;DHT22;21290;50.158;8.658;2022-07-30T06:38:11;20.80;99.90
35111;DHT22;21290;50.158;8.658;2022-07-30T06:40:38;21.00;99.90
35111;DHT22;21290;50.158;8.658;2022-07-30T06:43:05;21.10;99.90
35111;DHT22;21290;50.158;8.658;2022-07-30T06:45:32;21.20;99.90
35111;DHT22;21290;50.158;8.658;2022-07-30T06:47:59;21.30;99.90
35111;DHT22;21290;50.158;8.658;2022-07-30T06:50:26;21.50;99.90
35111;DHT22;21290;50.158;8.658;2022-07-30T06:52:52;21.80;99.90
35111;DHT22;21290;50.158;8.658;2022-07-30T06:55:19;22.00;99.90
35111;DHT22;21290;50.158;8.658;2022-07-30T06:57:46;22.20;99.90
35111;DHT22;21290;50.158;8.658;2022-07-30T07:00:13;22.50;99.90
35111;DHT22;21290;50.158;8.658;2022-07-30T07:02:40;22.70;99.90
35111;DHT22;21290;50.158;8.658;2022-07-30T07:05:08;22.90;99.90
35111;DHT22;21290;50.158;8.658;2022-07-30T07:07:35;23.00;99.90
35111;DHT22;21290;50.158;8.658;2022-07-30T07:10:12;23.30;99.90
35111;DHT22;21290;50.158;8.658;2022-07-30T07:12:40;23.30;99.90
35111;DHT22;21290;50.158;8.658;2022-07-30T07:15:07;23.30;99.90
35111;DHT22;21290;50.158;8.658;2022-07-30T07:17:34;23.40;99.90
35111;DHT22;21290;50.158;8.658;2022-07-30T07:20:01;23.60;99.90
35111;DHT22;21290;50.158;8.658;2022-07-30T07:22:28;23.80;99.90
35111;DHT22;21290;50.158;8.658;2022-07-30T07:24:55;23.90;99.90
35111;DHT22;21290;50.158;8.658;2022-07-30T07:27:22;24.00;99.90
35111;DHT22;21290;50.158;8.658;2022-07-30T07:29:49;24.20;99.90
35111;DHT22;21290;50.158;8.658;2022-07-30T07:32:32;24.50;99.90
35111;DHT22;21290;50.158;8.658;2022-07-30T07:34:59;24.70;99.90
35111;DHT22;21290;50.158;8.658;2022-07-30T07:37:25;24.80;99.90
35111;DHT22;21290;50.158;8.658;2022-07-30T07:39:52;25.00;99.90
35111;DHT22;21290;50.158;8.658;2022-07-30T07:42:19;24.90;99.90
35111;DHT22;21290;50.158;8.658;2022-07-30T07:44:45;24.90;99.90
35111;DHT22;21290;50.158;8.658;2022-07-30T07:47:12;25.20;99.90
35111;DHT22;21290;50.158;8.658;2022-07-30T07:49:39;25.60;99.30
35111;DHT22;21290;50.158;8.658;2022-07-30T07:52:06;25.90;98.40
35111;DHT22;21290;50.158;8.658;2022-07-30T07:54:33;26.20;97.70
35111;DHT22;21290;50.158;8.658;2022-07-30T15:46:14;28.90;49.10
35111;DHT22;21290;50.158;8.658;2022-07-30T15:48:41;28.70;49.20
35111;DHT22;21290;50.158;8.658;2022-07-30T15:51:09;28.60;49.70
35111;DHT22;21290;50.158;8.658;2022-07-30T15:53:35;28.50;49.10
35111;DHT22;21290;50.158;8.658;2022-07-30T15:56:03;28.50;49.30
35111;DHT22;21290;50.158;8.658;2022-07-30T15:58:29;28.50;49.20
35111;DHT22;21290;50.158;8.658;2022-07-30T16:00:56;28.60;49.40
35111;DHT22;21290;50.158;8.658;2022-07-30T16:03:23;28.60;49.50
35111;DHT22;21290;50.158;8.658;2022-07-30T16:05:50;28.60;49.40
35111;DHT22;21290;50.158;8.658;2022-07-30T16:08:21;28.60;49.40
35111;DHT22;21290;50.158;8.658;2022-07-30T16:10:48;28.60;49.00
35111;DHT22;21290;50.158;8.658;2022-07-30T16:13:15;28.60;49.20
35111;DHT22;21290;50.158;8.658;2022-07-30T16:15:43;28.60;49.60
35111;DHT22;21290;50.158;8.658;2022-07-30T16:18:09;28.60;49.70
35111;DHT22;21290;50.158;8.658;2022-07-30T16:20:36;28.50;49.60
35111;DHT22;21290;50.158;8.658;2022-07-30T16:23:03;28.50;49.80
35111;DHT22;21290;50.158;8.658;2022-07-30T16:25:35;28.50;49.30
35111;DHT22;21290;50.158;8.658;2022-07-30T16:28:02;28.40;49.50
35111;DHT22;21290;50.158;8.658;2022-07-30T16:30:29;28.30;49.10
35111;DHT22;21290;50.158;8.658;2022-07-30T16:32:55;28.30;49.60
35111;DHT22;21290;50.158;8.658;2022-07-30T16:35:22;28.20;49.40
35111;DHT22;21290;50.158;8.658;2022-07-30T16:37:49;28.10;49.30
35111;DHT22;21290;50.158;8.658;2022-07-30T16:40:16;28.00;49.50
35111;DHT22;21290;50.158;8.658;2022-07-30T16:42:43;27.80;49.80
35111;DHT22;21290;50.158;8.658;2022-07-30T16:45:09;27.60;49.90
35111;DHT22;21290;50.158;8.658;2022-07-30T16:47:36;27.50;50.40
35111;DHT22;21290;50.158;8.658;2022-07-30T16:50:03;27.50;50.40
35111;DHT22;21290;50.158;8.658;2022-07-30T16:52:30;27.50;50.70
35111;DHT22;21290;50.158;8.658;2022-07-30T16:54:56;27.50;50.70
35111;DHT22;21290;50.158;8.658;2022-07-30T16:57:23;27.40;51.00
35111;DHT22;21290;50.158;8.658;2022-07-30T16:59:50;27.40;51.00
35111;DHT22;21290;50.158;8.658;2022-07-30T17:02:16;27.50;51.30
35111;DHT22;21290;50.158;8.658;2022-07-30T17:04:43;27.40;50.80
35111;DHT22;21290;50.158;8.658;2022-07-30T17:07:10;27.40;50.90
35111;DHT22;21290;50.158;8.658;2022-07-30T17:09:36;27.30;51.40
35111;DHT22;21290;50.158;8.658;2022-07-30T17:12:04;27.30;51.40
35111;DHT22;21290;50.158;8.658;2022-07-30T17:14:39;27.30;50.90
35111;DHT22;21290;50.158;8.658;2022-07-30T17:17:05;27.20;51.10
35111;DHT22;21290;50.158;8.658;2022-07-30T17:19:39;27.20;50.90
35111;DHT22;21290;50.158;8.658;2022-07-30T17:22:05;27.10;50.90
35111;DHT22;21290;50.158;8.658;2022-07-30T17:24:32;27.00;50.60
35111;DHT22;21290;50.158;8.658;2022-07-30T17:26:59;27.00;50.30
35111;DHT22;21290;50.158;8.658;2022-07-30T17:29:25;26.90;50.00
35111;DHT22;21290;50.158;8.658;2022-07-30T17:31:52;26.90;50.40
35111;DHT22;21290;50.158;8.658;2022-07-30T17:34:21;26.80;49.70
35111;DHT22;21290;50.158;8.658;2022-07-30T17:36:49;26.70;49.40
35111;DHT22;21290;50.158;8.658;2022-07-30T17:39:19;26.60;49.20
35111;DHT22;21290;50.158;8.658;2022-07-30T17:42:10;26.50;49.70
35111;DHT22;21290;50.158;8.658;2022-07-30T17:44:38;26.40;49.60
35111;DHT22;21290;50.158;8.658;2022-07-30T17:47:05;26.30;49.80
35111;DHT22;21290;50.158;8.658;2022-07-30T17:49:39;26.20;50.10
35111;DHT22;21290;50.158;8.658;2022-07-30T17:52:06;26.10;50.40
35111;DHT22;21290;50.158;8.658;2022-07-30T17:54:33;25.90;50.80
35111;DHT22;21290;50.158;8.658;2022-07-30T17:56:59;25.80;51.20
35111;DHT22;21290;50.158;8.658;2022-07-30T17:59:26;25.60;51.60
35111;DHT22;21290;50.158;8.658;2022-07-30T18:01:53;25.50;52.00
35111;DHT22;21290;50.158;8.658;2022-07-30T18:04:20;25.40;52.40
35111;DHT22;21290;50.158;8.658;2022-07-30T18:06:46;25.30;52.40
35111;DHT22;21290;50.158;8.658;2022-07-30T18:09:14;25.20;52.70
35111;DHT22;21290;50.158;8.658;2022-07-30T18:11:41;25.00;52.80
35111;DHT22;21290;50.158;8.658;2022-07-30T18:14:07;24.90;53.60
35111;DHT22;21290;50.158;8.658;2022-07-30T18:16:34;24.80;53.20
35111;DHT22;21290;50.158;8.658;2022-07-30T18:19:01;24.70;53.40
35111;DHT22;21290;50.158;8.658;2022-07-30T18:21:27;24.60;53.90
35111;DHT22;21290;50.158;8.658;2022-07-30T18:23:54;24.50;54.40
35111;DHT22;21290;50.158;8.658;2022-07-30T18:26:23;24.50;54.50
35111;DHT22;21290;50.158;8.658;2022-07-30T18:28:50;24.40;55.10
35111;DHT22;21290;50.158;8.658;2022-07-30T18:31:17;24.30;55.30
35111;DHT22;21290;50.158;8.658;2022-07-30T18:33:44;24.30;55.50
35111;DHT22;21290;50.158;8.658;2022-07-30T18:36:10;24.20;55.90
35111;DHT22;21290;50.158;8.658;2022-07-30T18:38:37;24.10;56.00
35111;DHT22;21290;50.158;8.658;2022-07-30T18:41:04;24.00;56.40
35111;DHT22;21290;50.158;8.658;2022-07-30T18:43:31;24.00;56.80
35111;DHT22;21290;50.158;8.658;2022-07-30T18:46:13;23.90;57.20
35111;DHT22;21290;50.158;8.658;2022-07-30T18:48:39;23.90;57.30
35111;DHT22;21290;50.158;8.658;2022-07-30T18:51:06;23.80;57.40
35111;DHT22;21290;50.158;8.658;2022-07-30T18:53:39;23.70;57.50
35111;DHT22;21290;50.158;8.658;2022-07-30T18:56:06;23.60;57.80
35111;DHT22;21290;50.158;8.658;2022-07-30T18:58:32;23.50;58.00
35111;DHT22;21290;50.158;8.658;2022-07-30T19:00:59;23.50;58.10
35111;DHT22;21290;50.158;8.658;2022-07-30T19:03:26;23.40;58.30
35111;DHT22;21290;50.158;8.658;2022-07-30T19:05:53;23.40;58.90
35111;DHT22;21290;50.158;8.658;2022-07-30T19:08:19;23.30;58.70
35111;DHT22;21290;50.158;8.658;2022-07-30T19:10:46;23.30;59.10
35111;DHT22;21290;50.158;8.658;2022-07-30T19:13:14;23.20;59.30
35111;DHT22;21290;50.158;8.658;2022-07-30T19:15:40;23.10;59.60
35111;DHT22;21290;50.158;8.658;2022-07-30T19:18:07;23.10;59.60
35111;DHT22;21290;50.158;8.658;2022-07-30T19:20:35;23.00;59.80
35111;DHT22;21290;50.158;8.658;2022-07-30T19:23:04;22.90;59.90
35111;DHT22;21290;50.158;8.658;2022-07-30T19:25:32;22.80;60.30
35111;DHT22;21290;50.158;8.658;2022-07-30T19:28:00;22.80;60.70
35111;DHT22;21290;50.158;8.658;2022-07-30T19:30:28;22.70;61.20
35111;DHT22;21290;50.158;8.658;2022-07-30T19:33:01;22.60;61.50
35111;DHT22;21290;50.158;8.658;2022-07-30T19:35:28;22.50;61.80
35111;DHT22;21290;50.158;8.658;2022-07-30T19:37:55;22.40;62.40
35111;DHT22;21290;50.158;8.658;2022-07-30T19:40:22;22.40;62.80
35111;DHT22;21290;50.158;8.658;2022-07-30T19:42:52;22.30;62.80
35111;DHT22;21290;50.158;8.658;2022-07-30T19:45:22;22.20;63.00
35111;DHT22;21290;50.158;8.658;2022-07-30T19:47:48;22.10;63.90
35111;DHT22;21290;50.158;8.658;2022-07-30T19:50:15;22.00;63.90
35111;DHT22;21290;50.158;8.658;2022-07-30T19:52:42;22.00;64.20
35111;DHT22;21290;50.158;8.658;2022-07-30T19:55:17;22.00;64.40
35111;DHT22;21290;50.158;8.658;2022-07-30T19:58:00;21.90;64.80
35111;DHT22;21290;50.158;8.658;2022-07-30T20:00:29;21.80;64.80
35111;DHT22;21290;50.158;8.658;2022-07-30T20:02:55;21.80;65.70
35111;DHT22;21290;50.158;8.658;2022-07-30T20:05:23;21.80;65.30
35111;DHT22;21290;50.158;8.658;2022-07-30T20:07:50;21.80;65.70
35111;DHT22;21290;50.158;8.658;2022-07-30T20:10:17;21.70;65.50
35111;DHT22;21290;50.158;8.658;2022-07-30T20:12:44;21.70;65.80
35111;DHT22;21290;50.158;8.658;2022-07-30T20:15:15;21.60;65.50
35111;DHT22;21290;50.158;8.658;2022-07-30T20:17:42;21.70;66.10
35111;DHT22;21290;50.158;8.658;2022-07-30T20:20:12;21.70;65.70
35111;DHT22;21290;50.158;8.658;2022-07-30T20:22:39;21.80;65.20
35111;DHT22;21290;50.158;8.658;2022-07-30T20:25:06;21.80;65.30
35111;DHT22;21290;50.158;8.658;2022-07-30T20:27:33;21.90;65.30
35111;DHT22;21290;50.158;8.658;2022-07-30T20:30:03;22.00;65.40
35111;DHT22;21290;50.158;8.658;2022-07-30T20:32:30;22.00;65.50
35111;DHT22;21290;50.158;8.658;2022-07-30T20:34:57;22.10;65.30
35111;DHT22;21290;50.158;8.658;2022-07-30T20:37:23;22.20;65.40
35111;DHT22;21290;50.158;8.658;2022-07-30T20:39:53;22.20;65.50
35111;DHT22;21290;50.158;8.658;2022-07-30T20:42:20;22.20;65.60
35111;DHT22;21290;50.158;8.658;2022-07-30T20:44:49;22.30;65.50
35111;DHT22;21290;50.158;8.658;2022-07-30T20:47:18;22.30;65.60
35111;DHT22;21290;50.158;8.658;2022-07-30T20:49:59;22.30;65.40
35111;DHT22;21290;50.158;8.658;2022-07-30T20:52:27;22.30;65.20
35111;DHT22;21290;50.158;8.658;2022-07-30T20:54:54;22.30;65.40
35111;DHT22;21290;50.158;8.658;2022-07-30T20:57:21;22.30;65.70
35111;DHT22;21290;50.158;8.658;2022-07-30T21:00:09;22.20;65.80
35111;DHT22;21290;50.158;8.658;2022-07-30T21:02:37;22.10;66.10
35111;DHT22;21290;50.158;8.658;2022-07-30T21:05:04;22.10;66.30
35111;DHT22;21290;50.158;8.658;2022-07-30T21:07:31;22.10;66.40
35111;DHT22;21290;50.158;8.658;2022-07-30T21:10:02;22.10;66.80
35111;DHT22;21290;50.158;8.658;2022-07-30T21:12:29;22.10;66.90
35111;DHT22;21290;50.158;8.658;2022-07-30T21:14:58;22.10;66.90
35111;DHT22;21290;50.158;8.658;2022-07-30T21:17:25;22.00;66.80
35111;DHT22;21290;50.158;8.658;2022-07-30T21:19:53;22.10;66.80
35111;DHT22;21290;50.158;8.658;2022-07-30T21:22:21;22.10;67.40
35111;DHT22;21290;50.158;8.658;2022-07-30T21:24:49;22.00;67.00
35111;DHT22;21290;50.158;8.658;2022-07-30T21:27:16;22.00;67.20
35111;DHT22;21290;50.158;8.658;2022-07-30T21:29:44;22.10;67.30
35111;DHT22;21290;50.158;8.658;2022-07-30T21:32:11;22.00;67.00
35111;DHT22;21290;50.158;8.658;2022-07-30T21:34:38;22.00;67.10
35111;DHT22;21290;50.158;8.658;2022-07-30T21:37:08;21.90;67.60
35111;DHT22;21290;50.158;8.658;2022-07-30T21:39:35;21.90;67.20
35111;DHT22;21290;50.158;8.658;2022-07-30T21:42:09;21.80;67.30
35111;DHT22;21290;50.158;8.658;2022-07-30T21:44:36;21.70;67.70
35111;DHT22;21290;50.158;8.658;2022-07-30T21:47:04;21.70;67.90
35111;DHT22;21290;50.158;8.658;2022-07-30T21:49:36;21.60;67.90
35111;DHT22;21290;50.158;8.658;2022-07-30T21:52:03;21.50;68.00
35111;DHT22;21290;50.158;8.658;2022-07-30T21:54:31;21.60;68.10
35111;DHT22;21290;50.158;8.658;2022-07-30T21:57:14;21.50;68.30
35111;DHT22;21290;50.158;8.658;2022-07-30T21:59:51;21.50;68.40
35111;DHT22;21290;50.158;8.658;2022-07-30T22:02:21;21.50;69.10
35111;DHT22;21290;50.158;8.658;2022-07-30T22:04:49;21.50;68.50
35111;DHT22;21290;50.158;8.658;2022-07-30T22:07:16;21.40;68.80
35111;DHT22;21290;50.158;8.658;2022-07-30T22:09:43;21.40;69.30
35111;DHT22;21290;50.158;8.658;2022-07-30T22:12:10;21.30;69.30
35111;DHT22;21290;50.158;8.658;2022-07-30T22:14:37;21.20;69.40
35111;DHT22;21290;50.158;8.658;2022-07-30T22:17:04;21.20;69.90
35111;DHT22;21290;50.158;8.658;2022-07-30T22:19:47;21.20;70.20
35111;DHT22;21290;50.158;8.658;2022-07-30T22:22:14;21.20;70.40
35111;DHT22;21290;50.158;8.658;2022-07-30T22:24:53;21.20;70.60
35111;DHT22;21290;50.158;8.658;2022-07-30T22:27:19;21.10;70.60
35111;DHT22;21290;50.158;8.658;2022-07-30T22:29:47;21.00;70.50
35111;DHT22;21290;50.158;8.658;2022-07-30T22:32:14;20.90;71.00
35111;DHT22;21290;50.158;8.658;2022-07-30T22:34:41;20.90;71.60
35111;DHT22;21290;50.158;8.658;2022-07-30T22:37:10;20.90;71.30
35111;DHT22;21290;50.158;8.658;2022-07-30T22:39:40;20.80;71.70
35111;DHT22;21290;50.158;8.658;2022-07-30T22:42:18;20.70;72.10
35111;DHT22;21290;50.158;8.658;2022-07-30T22:44:45;20.60;72.10
35111;DHT22;21290;50.158;8.658;2022-07-30T22:47:14;20.60;72.10
35111;DHT22;21290;50.158;8.658;2022-07-30T22:49:47;20.50;72.50
35111;DHT22;21290;50.158;8.658;2022-07-30T22:52:21;20.50;72.20
35111;DHT22;21290;50.158;8.658;2022-07-30T22:54:54;20.50;72.50
35111;DHT22;21290;50.158;8.658;2022-07-30T22:57:20;20.40;72.60
35111;DHT22;21290;50.158;8.658;2022-07-30T22:59:49;20.40;73.70
35111;DHT22;21290;50.158;8.658;2022-07-30T23:02:25;20.50;73.60
35111;DHT22;21290;50.158;8.658;2022-07-30T23:05:13;20.50;73.90
35111;DHT22;21290;50.158;8.658;2022-07-30T23:07:40;20.50;74.20
35111;DHT22;21290;50.158;8.658;2022-07-30T23:10:09;20.40;74.40
35111;DHT22;21290;50.158;8.658;2022-07-30T23:12:45;20.40;74.60
35111;DHT22;21290;50.158;8.658;2022-07-30T23:15:13;20.40;74.40
35111;DHT22;21290;50.158;8.658;2022-07-30T23:17:40;20.40;75.10
35111;DHT22;21290;50.158;8.658;2022-07-30T23:20:09;20.30;75.30
35111;DHT22;21290;50.158;8.658;2022-07-30T23:22:36;20.30;75.80
35111;DHT22;21290;50.158;8.658;2022-07-30T23:25:04;20.30;76.00
35111;DHT22;21290;50.158;8.658;2022-07-30T23:27:33;20.20;76.30
35111;DHT22;21290;50.158;8.658;2022-07-30T23:29:59;20.30;76.70
35111;DHT22;21290;50.158;8.658;2022-07-30T23:32:26;20.30;76.90
35111;DHT22;21290;50.158;8.658;2022-07-30T23:34:52;20.30;77.10
35111;DHT22;21290;50.158;8.658;2022-07-30T23:37:19;20.30;76.90